Time;durP1;ratioP1;P1;durP2;ratioP2;P2;SDS_P1;SDS_P2;PMS_P1;PMS_P2;Temp;Humidity;BMP_temperature;BMP_pressure;BME280_temperature;BME280_humidity;BME280_pressure;Samples;Min_cycle;Max_cycle;Signal;HPM_P1;HPM_P2
2023/03/05 00:01:38;;;;;;;26.43;5.33;;;5.90;99.90;;;;;;5068728;28;20315;-75
2023/03/05 00:04:08;;;;;;;31.00;6.33;;;6.00;99.90;;;;;;5050973;28;20700;-75
2023/03/05 00:06:34;;;;;;;28.03;5.83;;;5.90;99.90;;;;;;5050176;28;20326;-75
2023/03/05 00:09:03;;;;;;;26.73;5.70;;;5.90;99.90;;;;;;5073241;28;20230;-76
2023/03/05 00:11:32;;;;;;;26.80;5.73;;;7.00;99.90;;;;;;5067684;28;20206;-76
2023/03/05 00:14:00;;;;;;;41.63;7.13;;;6.10;99.90;;;;;;5052949;28;20220;-76
2023/03/05 00:16:29;;;;;;;23.67;5.20;;;5.90;99.90;;;;;;5063263;28;20213;-76
2023/03/05 00:18:57;;;;;;;27.07;5.80;;;5.90;99.90;;;;;;5068274;28;20252;-76
2023/03/05 00:21:27;;;;;;;28.33;5.87;;;5.80;99.90;;;;;;5049637;28;20203;-76
2023/03/05 00:23:55;;;;;;;33.00;6.37;;;5.90;99.90;;;;;;5068376;28;20207;-76
2023/03/05 00:26:25;;;;;;;27.53;6.43;;;5.90;99.90;;;;;;5066132;28;20269;-76
2023/03/05 00:28:52;;;;;;;28.57;5.80;;;5.80;99.90;;;;;;5051520;28;20328;-75
2023/03/05 00:31:21;;;;;;;26.30;5.43;;;5.90;99.90;;;;;;5067337;28;20244;-76
2023/03/05 00:33:51;;;;;;;26.90;5.80;;;5.90;99.90;;;;;;5067691;28;20206;-76
2023/03/05 00:36:18;;;;;;;32.13;6.17;;;6.00;99.90;;;;;;5063752;28;20560;-76
2023/03/05 00:38:45;;;;;;;31.13;5.80;;;5.70;99.90;;;;;;5051735;28;20512;-76
2023/03/05 00:41:12;;;;;;;27.60;5.23;;;5.70;99.90;;;;;;5054377;28;20214;-76
2023/03/05 00:43:40;;;;;;;30.50;6.23;;;5.60;99.90;;;;;;5065133;28;20351;-76
2023/03/05 00:46:07;;;;;;;29.53;6.57;;;5.80;99.90;;;;;;5079732;28;20215;-76
2023/03/05 00:48:34;;;;;;;30.73;5.73;;;5.60;99.90;;;;;;5068238;28;20258;-76
2023/03/05 00:51:01;;;;;;;29.83;6.37;;;5.60;99.90;;;;;;5050396;28;20220;-76
2023/03/05 00:53:28;;;;;;;28.93;5.70;;;5.60;99.90;;;;;;5067298;28;20213;-76
2023/03/05 00:55:55;;;;;;;29.00;6.33;;;5.60;99.90;;;;;;5068282;28;20211;-76
2023/03/05 00:58:22;;;;;;;25.53;5.67;;;5.10;99.90;;;;;;5050756;28;20249;-76
2023/03/05 01:00:50;;;;;;;26.63;5.73;;;5.60;99.90;;;;;;5069154;28;20478;-76
2023/03/05 01:03:17;;;;;;;27.67;5.87;;;5.60;99.90;;;;;;5066553;28;20702;-75
2023/03/05 01:05:44;;;;;;;29.03;5.73;;;6.30;99.90;;;;;;5045679;28;20233;-76
2023/03/05 01:08:11;;;;;;;27.97;5.43;;;5.60;99.90;;;;;;5068755;28;20243;-76
2023/03/05 01:10:38;;;;;;;28.37;5.80;;;5.60;99.90;;;;;;5067763;28;20203;-76
2023/03/05 01:13:05;;;;;;;38.20;6.47;;;6.10;99.90;;;;;;5065076;28;20780;-77
2023/03/05 01:15:32;;;;;;;26.90;5.87;;;5.60;99.90;;;;;;5049193;28;20210;-76
2023/03/05 01:18:06;;;;;;;29.90;6.27;;;5.50;99.90;;;;;;5067935;28;20234;-76
2023/03/05 01:20:33;;;;;;;27.30;5.93;;;5.50;99.90;;;;;;5050704;28;20230;-76
2023/03/05 01:23:00;;;;;;;34.07;5.83;;;5.50;99.90;;;;;;5069054;28;20269;-76
2023/03/05 01:25:27;;;;;;;27.97;6.10;;;5.40;99.90;;;;;;5067849;28;20219;-76
2023/03/05 01:27:54;;;;;;;26.00;5.27;;;5.50;99.90;;;;;;5066041;28;20239;-76
2023/03/05 01:30:21;;;;;;;22.87;5.43;;;5.70;99.90;;;;;;5048160;28;20590;-76
2023/03/05 01:32:48;;;;;;;30.67;6.03;;;5.50;99.90;;;;;;5048437;28;20207;-76
2023/03/05 01:35:19;;;;;;;25.73;5.80;;;5.60;99.90;;;;;;5048630;28;20225;-76
2023/03/05 01:37:46;;;;;;;27.80;6.07;;;5.50;99.90;;;;;;5066517;28;20439;-76
2023/03/05 01:40:16;;;;;;;26.13;6.00;;;5.50;99.90;;;;;;5064941;28;20683;-76
2023/03/05 01:42:45;;;;;;;26.77;5.10;;;5.50;99.90;;;;;;5066886;28;20214;-76
2023/03/05 01:45:14;;;;;;;26.47;6.03;;;5.50;99.90;;;;;;5066921;28;20235;-76
2023/03/05 01:47:41;;;;;;;33.07;5.77;;;5.40;99.90;;;;;;5048571;28;20616;-76
2023/03/05 01:50:12;;;;;;;21.50;5.03;;;5.50;99.90;;;;;;5066655;28;20218;-76
2023/03/05 01:52:45;;;;;;;25.93;4.97;;;5.30;99.90;;;;;;5049442;28;20244;-76
2023/03/05 01:55:16;;;;;;;30.80;6.13;;;5.30;99.90;;;;;;5050992;28;20306;-76
2023/03/05 01:57:45;;;;;;;21.67;4.67;;;5.30;99.90;;;;;;5048778;28;20222;-76
2023/03/05 02:00:16;;;;;;;26.27;5.73;;;5.20;99.90;;;;;;5049050;28;20259;-76
2023/03/05 02:02:44;;;;;;;23.40;5.47;;;5.20;99.90;;;;;;5054636;28;20232;-76
2023/03/05 02:05:16;;;;;;;22.63;5.40;;;5.30;99.90;;;;;;5052416;28;20221;-76
2023/03/05 02:07:44;;;;;;;27.67;5.17;;;5.30;99.90;;;;;;5066128;28;20421;-76
2023/03/05 02:10:16;;;;;;;23.37;5.90;;;5.20;99.90;;;;;;5066331;28;20735;-76
2023/03/05 02:12:43;;;;;;;32.10;6.40;;;5.30;99.90;;;;;;5066538;28;20755;-76
2023/03/05 02:15:12;;;;;;;21.93;5.03;;;5.40;99.90;;;;;;5048611;28;20256;-76
2023/03/05 02:17:39;;;;;;;26.97;5.50;;;5.30;99.90;;;;;;5066871;28;20214;-75
2023/03/05 02:20:09;;;;;;;26.20;6.27;;;5.30;99.90;;;;;;5076266;28;20281;-76
2023/03/05 02:22:37;;;;;;;25.30;5.47;;;5.40;99.90;;;;;;5071964;28;20216;-75
2023/03/05 02:25:14;;;;;;;24.23;5.83;;;5.30;99.90;;;;;;5066750;28;20448;-75
2023/03/05 02:27:46;;;;;;;22.77;4.93;;;5.40;99.90;;;;;;5043043;28;20198;-76
2023/03/05 02:30:14;;;;;;;21.80;4.63;;;5.30;99.90;;;;;;5047930;28;20224;-76
2023/03/05 02:32:41;;;;;;;24.23;5.47;;;5.30;99.90;;;;;;5065514;28;20914;-76
2023/03/05 02:35:09;;;;;;;22.70;5.33;;;5.30;99.90;;;;;;5048035;28;20686;-76
2023/03/05 02:37:37;;;;;;;27.47;5.87;;;5.20;99.90;;;;;;5064600;28;20210;-75
2023/03/05 02:40:06;;;;;;;27.43;5.80;;;5.30;99.90;;;;;;5052112;28;20225;-75
2023/03/05 02:42:34;;;;;;;24.03;5.03;;;5.30;99.90;;;;;;5066745;28;20210;-75
2023/03/05 02:45:02;;;;;;;26.17;6.20;;;5.30;99.90;;;;;;5048212;28;20221;-75
2023/03/05 02:47:29;;;;;;;25.13;6.03;;;4.60;99.90;;;;;;5051359;28;20227;-75
2023/03/05 02:49:56;;;;;;;23.00;5.47;;;5.30;99.90;;;;;;5052016;28;20304;-75
2023/03/05 02:52:24;;;;;;;18.83;4.70;;;5.20;99.90;;;;;;5051898;28;20230;-75
2023/03/05 02:54:53;;;;;;;21.70;4.57;;;5.30;99.90;;;;;;5045691;28;20268;-75
2023/03/05 02:57:20;;;;;;;24.07;5.60;;;5.20;99.90;;;;;;5045698;28;20214;-75
2023/03/05 02:59:47;;;;;;;20.07;4.87;;;5.30;99.90;;;;;;5054341;28;20230;-76
2023/03/05 03:02:15;;;;;;;22.33;5.53;;;5.20;99.90;;;;;;5049629;28;20251;-76
2023/03/05 03:04:43;;;;;;;19.67;5.10;;;4.60;99.90;;;;;;5051555;28;20676;-76
2023/03/05 03:07:10;;;;;;;26.23;5.50;;;5.10;99.90;;;;;;5051228;28;20313;-76
2023/03/05 03:09:38;;;;;;;24.80;5.73;;;5.10;99.90;;;;;;5069950;28;20227;-76
2023/03/05 03:12:07;;;;;;;23.03;5.10;;;5.00;99.90;;;;;;5069485;28;20207;-76
2023/03/05 03:14:38;;;;;;;26.53;5.67;;;5.10;99.90;;;;;;5070117;28;20296;-76
2023/03/05 03:17:05;;;;;;;24.73;5.43;;;5.10;99.90;;;;;;5069055;28;20207;-76
2023/03/05 03:19:32;;;;;;;29.87;5.87;;;5.10;99.90;;;;;;5057125;28;20747;-76
2023/03/05 03:21:59;;;;;;;23.33;5.67;;;5.00;99.90;;;;;;5070310;28;20217;-76
2023/03/05 03:24:26;;;;;;;27.93;5.73;;;5.10;99.90;;;;;;5067750;28;20209;-76
2023/03/05 03:26:53;;;;;;;19.60;5.17;;;5.00;99.90;;;;;;5051774;28;20730;-76
2023/03/05 03:29:22;;;;;;;27.23;6.20;;;5.20;99.90;;;;;;5069251;28;20735;-76
2023/03/05 03:31:48;;;;;;;24.93;5.50;;;5.00;99.90;;;;;;5068775;28;20206;-76
2023/03/05 03:34:17;;;;;;;20.33;4.80;;;5.20;99.90;;;;;;5068529;28;20210;-76
2023/03/05 03:36:45;;;;;;;22.33;4.90;;;5.00;99.90;;;;;;5069430;28;20206;-76
2023/03/05 03:39:12;;;;;;;20.33;4.93;;;5.10;99.90;;;;;;5069064;28;20231;-76
2023/03/05 03:41:42;;;;;;;22.73;5.00;;;4.90;99.90;;;;;;5071452;28;20226;-76
2023/03/05 03:44:09;;;;;;;20.33;5.10;;;5.10;99.90;;;;;;5070438;28;20211;-76
2023/03/05 03:46:38;;;;;;;24.77;5.63;;;4.90;99.90;;;;;;5066413;28;20239;-76
2023/03/05 03:49:07;;;;;;;23.63;5.53;;;5.00;99.90;;;;;;5069294;28;20237;-76
2023/03/05 03:51:34;;;;;;;29.13;5.57;;;4.90;99.90;;;;;;5069488;28;20215;-76
2023/03/05 03:54:01;;;;;;;25.90;5.33;;;5.00;99.90;;;;;;5070460;28;20666;-76
2023/03/05 03:56:28;;;;;;;20.63;5.07;;;4.90;99.90;;;;;;5079418;28;20703;-76
2023/03/05 03:58:54;;;;;;;24.03;5.47;;;5.10;99.90;;;;;;5050959;28;20738;-76
2023/03/05 04:01:22;;;;;;;29.00;5.83;;;5.00;99.90;;;;;;5087611;28;20518;-76
2023/03/05 04:03:50;;;;;;;19.23;5.10;;;5.20;99.90;;;;;;5073629;28;20211;-76
2023/03/05 04:06:17;;;;;;;18.70;4.80;;;5.00;99.90;;;;;;5060403;28;20749;-75
2023/03/05 04:08:44;;;;;;;22.80;4.93;;;4.90;99.90;;;;;;5045830;28;20226;-76
2023/03/05 04:11:10;;;;;;;27.73;5.83;;;5.00;99.90;;;;;;5069129;28;20211;-76
2023/03/05 04:13:37;;;;;;;22.73;5.40;;;4.90;99.90;;;;;;5068468;28;20659;-75
2023/03/05 04:16:05;;;;;;;20.07;5.50;;;5.00;99.90;;;;;;5052196;28;20214;-75
2023/03/05 04:18:32;;;;;;;23.87;5.83;;;5.00;99.90;;;;;;5074991;28;20242;-75
2023/03/05 04:21:00;;;;;;;21.40;5.50;;;5.10;99.90;;;;;;5050154;28;20363;-75
2023/03/05 04:23:27;;;;;;;21.57;5.27;;;5.30;99.90;;;;;;5067363;28;20303;-75
2023/03/05 04:25:53;;;;;;;23.10;5.87;;;5.20;99.90;;;;;;5050097;28;20263;-76
2023/03/05 04:28:20;;;;;;;23.97;5.67;;;5.00;99.90;;;;;;5053223;28;20234;-75
2023/03/05 04:30:47;;;;;;;24.67;5.77;;;5.00;99.90;;;;;;5068650;28;20210;-76
2023/03/05 04:33:14;;;;;;;26.23;5.83;;;5.00;99.90;;;;;;5069629;28;20206;-76
2023/03/05 04:35:41;;;;;;;22.97;5.33;;;5.00;99.90;;;;;;5068357;28;20218;-76
2023/03/05 04:38:09;;;;;;;25.87;5.90;;;5.30;99.90;;;;;;5067744;28;20477;-76
2023/03/05 04:40:37;;;;;;;20.57;5.17;;;5.00;99.90;;;;;;5049874;28;20222;-76
2023/03/05 04:43:04;;;;;;;26.10;5.73;;;5.20;99.90;;;;;;5051662;28;20225;-75
2023/03/05 04:45:31;;;;;;;29.53;6.00;;;5.00;99.90;;;;;;5067745;28;20227;-76
2023/03/05 04:47:58;;;;;;;25.37;5.77;;;5.10;99.90;;;;;;5047332;28;20238;-75
2023/03/05 04:50:25;;;;;;;26.23;5.57;;;5.00;99.90;;;;;;5071054;28;20217;-75
2023/03/05 04:52:52;;;;;;;48.00;11.73;;;4.90;99.90;;;;;;5067907;28;20204;-75
2023/03/05 04:55:20;;;;;;;26.87;6.50;;;4.90;99.90;;;;;;5051188;28;20717;-75
2023/03/05 04:57:47;;;;;;;27.70;6.30;;;5.00;99.90;;;;;;5071504;28;20242;-75
2023/03/05 05:00:17;;;;;;;27.70;5.77;;;4.90;99.90;;;;;;5067430;28;20223;-75
2023/03/05 05:02:45;;;;;;;25.53;5.97;;;4.90;99.90;;;;;;5043569;28;20209;-75
2023/03/05 05:05:14;;;;;;;21.70;4.93;;;4.90;99.90;;;;;;5066513;28;20219;-76
2023/03/05 05:07:41;;;;;;;18.83;4.47;;;4.90;99.90;;;;;;5049454;28;20686;-75
2023/03/05 05:10:10;;;;;;;27.70;5.93;;;4.90;99.90;;;;;;5066652;28;20202;-76
2023/03/05 05:12:38;;;;;;;26.43;5.80;;;4.90;99.90;;;;;;5067147;28;20263;-76
2023/03/05 05:15:07;;;;;;;22.53;5.33;;;4.80;99.90;;;;;;5068069;28;20210;-76
2023/03/05 05:17:34;;;;;;;26.30;5.53;;;4.90;99.90;;;;;;5074065;28;20214;-76
2023/03/05 05:20:03;;;;;;;23.87;5.30;;;4.80;99.90;;;;;;5049176;28;20218;-76
2023/03/05 05:22:30;;;;;;;23.03;5.33;;;4.80;99.90;;;;;;5049545;28;20555;-76
2023/03/05 05:24:57;;;;;;;21.97;4.70;;;5.10;99.90;;;;;;5067353;28;20209;-76
2023/03/05 05:27:24;;;;;;;27.60;5.13;;;4.80;99.90;;;;;;5067444;28;20357;-76
2023/03/05 05:29:52;;;;;;;26.50;5.07;;;4.80;99.90;;;;;;5066267;28;20227;-76
2023/03/05 05:32:21;;;;;;;25.13;5.10;;;4.90;99.90;;;;;;5048862;28;20219;-76
2023/03/05 05:34:47;;;;;;;23.63;5.33;;;4.80;99.90;;;;;;5067360;28;20203;-76
2023/03/05 05:37:14;;;;;;;20.10;4.77;;;5.10;99.90;;;;;;5066499;28;20500;-76
2023/03/05 05:39:41;;;;;;;24.57;5.70;;;4.90;99.90;;;;;;5066966;28;20518;-76
2023/03/05 05:42:08;;;;;;;25.70;5.67;;;4.80;99.90;;;;;;5066767;28;20214;-76
2023/03/05 05:44:35;;;;;;;20.27;4.70;;;5.00;99.90;;;;;;5063682;28;20238;-76
2023/03/05 05:47:03;;;;;;;22.53;5.57;;;4.80;99.90;;;;;;5068530;28;20768;-76
2023/03/05 05:49:30;;;;;;;19.40;4.70;;;4.70;99.90;;;;;;5059036;28;20228;-76
2023/03/05 05:51:58;;;;;;;20.47;5.00;;;4.80;99.90;;;;;;5053185;28;20210;-76
2023/03/05 05:54:25;;;;;;;23.73;5.70;;;4.90;99.90;;;;;;5071948;28;20723;-75
2023/03/05 05:56:52;;;;;;;18.07;4.90;;;4.80;99.90;;;;;;5067496;28;20218;-75
2023/03/05 05:59:18;;;;;;;19.50;4.97;;;5.10;99.90;;;;;;5066957;28;20241;-76
2023/03/05 06:01:45;;;;;;;22.90;5.20;;;4.90;99.90;;;;;;5067110;28;20204;-75
2023/03/05 06:04:13;;;;;;;23.30;5.10;;;5.00;99.90;;;;;;5067535;28;20212;-75
2023/03/05 06:06:40;;;;;;;22.80;5.30;;;4.80;99.90;;;;;;5074874;28;20212;-76
2023/03/05 06:09:07;;;;;;;21.77;5.33;;;4.70;99.90;;;;;;5069867;28;20234;-75
2023/03/05 06:11:34;;;;;;;24.80;5.27;;;4.70;99.90;;;;;;5067913;28;20224;-76
2023/03/05 06:14:02;;;;;;;22.67;5.43;;;4.80;99.90;;;;;;5066582;28;20266;-76
2023/03/05 06:16:30;;;;;;;31.23;7.50;;;4.80;99.90;;;;;;5067950;28;20206;-76
2023/03/05 06:18:57;;;;;;;19.97;5.07;;;4.90;99.90;;;;;;5067506;28;20317;-77
2023/03/05 06:21:25;;;;;;;29.03;5.80;;;4.80;99.90;;;;;;5065800;28;20222;-77
2023/03/05 06:23:52;;;;;;;16.10;3.73;;;4.80;99.90;;;;;;5078879;28;20196;-76
2023/03/05 06:26:21;;;;;;;19.13;4.47;;;4.80;99.90;;;;;;5074952;28;20191;-75
2023/03/05 06:28:48;;;;;;;24.73;5.57;;;4.80;99.90;;;;;;5068470;28;20228;-77
2023/03/05 06:31:17;;;;;;;24.83;6.10;;;4.80;99.90;;;;;;5066125;28;20336;-77
2023/03/05 06:33:45;;;;;;;28.13;6.17;;;4.80;99.90;;;;;;5060452;28;20214;-77
2023/03/05 06:36:14;;;;;;;20.80;5.33;;;5.00;99.90;;;;;;5068250;28;20576;-77
2023/03/05 06:38:42;;;;;;;28.60;6.03;;;4.90;99.90;;;;;;5069606;28;20221;-76
2023/03/05 06:41:12;;;;;;;24.00;7.30;;;4.90;99.90;;;;;;5050640;28;20316;-77
2023/03/05 06:43:41;;;;;;;26.77;5.87;;;4.90;99.90;;;;;;5067552;28;20206;-76
2023/03/05 06:46:11;;;;;;;20.67;5.13;;;5.00;99.90;;;;;;5067323;28;20628;-76
2023/03/05 06:48:38;;;;;;;22.70;5.70;;;5.00;99.90;;;;;;5068346;28;20235;-77
2023/03/05 06:51:05;;;;;;;17.03;4.53;;;5.00;99.90;;;;;;5067108;28;20610;-76
2023/03/05 06:53:32;;;;;;;24.03;5.77;;;5.00;99.90;;;;;;5067283;28;20269;-77
2023/03/05 06:56:02;;;;;;;23.07;5.43;;;5.00;99.90;;;;;;5071065;28;20203;-76
2023/03/05 06:58:30;;;;;;;21.90;5.40;;;5.10;99.90;;;;;;5074562;28;20226;-76
2023/03/05 07:00:57;;;;;;;23.27;6.77;;;5.30;99.90;;;;;;5067417;28;20213;-76
2023/03/05 07:03:24;;;;;;;24.03;5.60;;;5.20;99.90;;;;;;5057318;28;20206;-76
2023/03/05 07:05:50;;;;;;;25.07;6.07;;;5.30;99.90;;;;;;5071489;28;20216;-76
2023/03/05 07:08:17;;;;;;;24.87;5.90;;;5.20;99.90;;;;;;5066347;28;20238;-76
2023/03/05 07:10:44;;;;;;;25.10;5.97;;;5.30;99.90;;;;;;5066699;28;20281;-76
2023/03/05 07:13:12;;;;;;;25.37;5.97;;;5.40;99.90;;;;;;5066074;28;20286;-76
2023/03/05 07:15:41;;;;;;;21.43;5.80;;;5.30;99.90;;;;;;5048786;28;20980;-76
2023/03/05 07:18:07;;;;;;;30.50;7.23;;;5.70;99.90;;;;;;5065999;28;20226;-76
2023/03/05 07:20:35;;;;;;;24.10;6.33;;;5.40;99.90;;;;;;5047528;28;20216;-76
2023/03/05 07:23:02;;;;;;;26.63;6.67;;;5.40;99.90;;;;;;5066772;28;20226;-76
2023/03/05 07:25:29;;;;;;;25.23;6.13;;;5.80;99.90;;;;;;5067785;28;20201;-76
2023/03/05 07:27:56;;;;;;;30.17;6.63;;;5.50;99.90;;;;;;5070699;28;20239;-76
2023/03/05 07:30:24;;;;;;;22.57;5.53;;;5.40;99.90;;;;;;5065437;28;20209;-75
2023/03/05 07:32:52;;;;;;;28.93;7.07;;;5.40;99.90;;;;;;5068765;28;20204;-76
2023/03/05 07:35:19;;;;;;;19.60;4.80;;;5.50;99.90;;;;;;5069182;28;20212;-76
2023/03/05 07:37:46;;;;;;;30.80;7.33;;;5.50;99.90;;;;;;5051907;28;20284;-76
2023/03/05 07:40:13;;;;;;;24.03;5.63;;;5.40;99.90;;;;;;5065695;28;20227;-76
2023/03/05 07:42:40;;;;;;;24.40;5.80;;;5.40;99.90;;;;;;5048875;28;20212;-76
2023/03/05 07:45:14;;;;;;;26.93;6.10;;;5.50;99.90;;;;;;5061154;28;20211;-76
2023/03/05 07:47:42;;;;;;;26.67;6.87;;;5.60;99.90;;;;;;5076838;28;20232;-76
2023/03/05 07:50:10;;;;;;;18.60;5.13;;;5.70;99.90;;;;;;5068827;28;20747;-75
2023/03/05 07:52:37;;;;;;;22.37;5.27;;;5.60;99.90;;;;;;5069482;28;20943;-75
2023/03/05 07:55:04;;;;;;;30.00;6.53;;;5.70;99.90;;;;;;5051603;28;20224;-76
2023/03/05 07:57:31;;;;;;;30.83;6.70;;;5.50;99.90;;;;;;5069318;28;20202;-75
2023/03/05 07:59:58;;;;;;;20.43;5.93;;;5.60;99.90;;;;;;5067031;28;20211;-76
2023/03/05 08:02:25;;;;;;;25.90;6.57;;;5.70;99.90;;;;;;5068750;28;20196;-76
2023/03/05 08:04:54;;;;;;;22.17;5.63;;;5.70;99.90;;;;;;5069386;28;20218;-77
2023/03/05 08:07:20;;;;;;;25.67;6.03;;;5.60;99.90;;;;;;5051303;28;20228;-76
2023/03/05 08:09:47;;;;;;;22.63;5.73;;;5.70;99.90;;;;;;5049792;28;20285;-75
2023/03/05 08:12:14;;;;;;;26.67;6.37;;;5.70;99.90;;;;;;5045057;28;20214;-75
2023/03/05 08:14:42;;;;;;;28.13;6.63;;;5.80;99.90;;;;;;5050901;28;20216;-76
2023/03/05 08:17:09;;;;;;;27.77;6.70;;;5.80;99.90;;;;;;5068659;28;20208;-75
2023/03/05 08:19:36;;;;;;;22.87;6.33;;;5.80;99.90;;;;;;5070437;28;20962;-75
2023/03/05 08:22:05;;;;;;;24.03;6.70;;;5.90;99.90;;;;;;5068356;28;20208;-75
2023/03/05 08:24:32;;;;;;;20.80;5.57;;;6.00;99.90;;;;;;5057246;28;20193;-76
2023/03/05 08:26:59;;;;;;;23.07;5.27;;;6.10;99.90;;;;;;5068472;28;20208;-76
2023/03/05 08:29:26;;;;;;;20.67;6.20;;;6.30;99.90;;;;;;5063380;28;20243;-75
2023/03/05 08:31:53;;;;;;;19.97;5.33;;;6.50;99.90;;;;;;5067634;28;20204;-76
2023/03/05 08:34:21;;;;;;;19.87;5.73;;;6.20;99.90;;;;;;5050401;28;20241;-76
2023/03/05 08:36:49;;;;;;;17.30;5.03;;;6.80;99.90;;;;;;5066388;28;20234;-76
2023/03/05 08:39:18;;;;;;;22.97;6.50;;;6.50;99.90;;;;;;5044418;28;20228;-75
2023/03/05 08:41:45;;;;;;;18.27;5.17;;;6.50;99.90;;;;;;5048107;28;20214;-75
2023/03/05 08:44:12;;;;;;;18.10;5.23;;;6.60;99.90;;;;;;5070495;28;20593;-75
2023/03/05 08:46:39;;;;;;;25.70;7.10;;;6.70;99.90;;;;;;5068225;28;20248;-75
2023/03/05 08:49:07;;;;;;;23.40;6.67;;;6.80;99.90;;;;;;5594280;22;20231;-75
2023/03/05 08:51:34;;;;;;;21.90;5.37;;;6.80;99.90;;;;;;5046467;28;20622;-76
2023/03/05 08:54:05;;;;;;;23.53;5.17;;;7.10;99.90;;;;;;5067581;28;20299;-75
2023/03/05 08:56:34;;;;;;;20.87;5.67;;;6.70;99.90;;;;;;5063999;28;20228;-76
2023/03/05 08:59:01;;;;;;;22.57;6.23;;;6.80;99.90;;;;;;5045656;28;20232;-76
2023/03/05 09:01:29;;;;;;;23.67;7.20;;;6.90;99.90;;;;;;5064551;28;20286;-76
2023/03/05 09:03:57;;;;;;;21.10;6.63;;;6.80;99.90;;;;;;5048575;28;20212;-76
2023/03/05 09:06:24;;;;;;;16.90;5.47;;;6.80;99.90;;;;;;5103582;22;20245;-74
2023/03/05 09:08:51;;;;;;;15.30;4.73;;;6.80;99.90;;;;;;5101424;28;20555;-74
2023/03/05 09:11:18;;;;;;;13.43;4.63;;;6.80;99.90;;;;;;5107025;28;20309;-75
2023/03/05 09:13:46;;;;;;;15.87;4.97;;;7.10;99.90;;;;;;5101549;28;20253;-74
2023/03/05 09:16:14;;;;;;;16.87;5.27;;;7.00;99.90;;;;;;5099999;28;20231;-74
2023/03/05 09:18:41;;;;;;;17.57;5.40;;;7.10;99.90;;;;;;5101312;28;20603;-74
2023/03/05 09:21:11;;;;;;;13.83;4.83;;;6.90;99.90;;;;;;5100892;28;20516;-75
2023/03/05 09:23:38;;;;;;;17.53;4.87;;;6.90;99.90;;;;;;5082416;28;20586;-75
2023/03/05 09:26:06;;;;;;;12.60;4.60;;;7.00;99.90;;;;;;5105258;28;20729;-74
2023/03/05 09:28:33;;;;;;;15.87;5.30;;;6.90;99.90;;;;;;5108574;28;20861;-76
2023/03/05 09:31:04;;;;;;;17.53;6.13;;;6.90;99.90;;;;;;5105912;28;20685;-74
2023/03/05 09:33:31;;;;;;;17.73;5.97;;;6.90;99.90;;;;;;5099199;28;20574;-75
2023/03/05 09:35:58;;;;;;;16.53;5.07;;;7.00;99.90;;;;;;5108703;28;20226;-75
2023/03/05 09:38:25;;;;;;;12.43;4.77;;;7.20;99.90;;;;;;5106770;28;20269;-75
2023/03/05 09:41:01;;;;;;;21.00;6.43;;;7.50;99.90;;;;;;5108758;28;20695;-74
2023/03/05 09:43:44;;;;;;;16.40;5.07;;;7.10;99.90;;;;;;5101174;28;20206;-75
2023/03/05 09:46:26;;;;;;;15.00;5.13;;;7.20;99.90;;;;;;5103028;28;20311;-75
2023/03/05 09:48:55;;;;;;;15.80;5.63;;;7.00;99.90;;;;;;5105304;28;20223;-74
2023/03/05 09:51:25;;;;;;;11.33;4.70;;;6.90;99.90;;;;;;5104807;28;20214;-74
2023/03/05 09:54:00;;;;;;;17.13;6.20;;;7.20;99.90;;;;;;5105149;28;20547;-75
2023/03/05 09:56:31;;;;;;;12.90;5.20;;;7.20;99.90;;;;;;5089714;28;20711;-75
2023/03/05 09:59:02;;;;;;;14.77;5.23;;;7.50;99.90;;;;;;5110062;28;20313;-74
2023/03/05 10:01:37;;;;;;;18.83;6.40;;;7.50;99.90;;;;;;5109982;28;20235;-75
2023/03/05 10:04:10;;;;;;;12.57;4.23;;;7.70;99.90;;;;;;5106607;28;20210;-75
2023/03/05 10:06:47;;;;;;;12.63;5.30;;;7.70;99.90;;;;;;5085101;28;20564;-75
2023/03/05 10:09:21;;;;;;;10.53;4.90;;;7.90;99.90;;;;;;5099657;28;20284;-74
2023/03/05 10:11:54;;;;;;;11.30;4.20;;;8.10;99.90;;;;;;5098974;28;20206;-74
2023/03/05 10:14:27;;;;;;;13.13;5.20;;;8.30;99.90;;;;;;5074493;28;20199;-74
2023/03/05 10:17:16;;;;;;;9.17;3.47;;;8.40;99.90;;;;;;5097901;28;20311;-74
2023/03/05 10:20:03;;;;;;;10.97;3.83;;;8.50;99.90;;;;;;5097902;28;20195;-74
2023/03/05 10:22:33;;;;;;;12.63;4.80;;;8.60;99.90;;;;;;5105884;28;20307;-74
2023/03/05 10:25:20;;;;;;;11.83;4.03;;;8.60;99.90;;;;;;5098088;28;20211;-74
2023/03/05 10:27:50;;;;;;;10.30;4.30;;;8.40;99.90;;;;;;5100136;28;20195;-74
2023/03/05 10:30:34;;;;;;;13.00;4.97;;;8.60;99.90;;;;;;5098165;28;20276;-73
2023/03/05 10:33:14;;;;;;;11.57;4.57;;;8.60;99.90;;;;;;5099259;28;20699;-74
2023/03/05 10:36:27;;;;;;;17.30;5.30;;;8.30;99.90;;;;;;5099758;28;20222;-73
2023/03/05 10:39:19;;;;;;;15.57;5.23;;;8.40;99.90;;;;;;5097698;28;20199;-73
2023/03/05 10:41:54;;;;;;;11.50;4.47;;;8.30;99.90;;;;;;5099983;28;20260;-73
2023/03/05 10:44:32;;;;;;;15.00;5.37;;;8.00;99.90;;;;;;5100704;28;20419;-74
2023/03/05 10:47:01;;;;;;;12.77;5.00;;;7.90;99.90;;;;;;5102375;28;20226;-73
2023/03/05 10:49:32;;;;;;;15.37;5.07;;;7.90;99.90;;;;;;5101550;28;20920;-73
2023/03/05 10:52:07;;;;;;;13.07;5.10;;;7.80;99.90;;;;;;5105152;28;20594;-76
2023/03/05 10:54:37;;;;;;;11.30;4.23;;;7.70;99.90;;;;;;5085732;28;20210;-75
2023/03/05 10:57:13;;;;;;;12.73;4.10;;;7.60;99.90;;;;;;5106775;28;20699;-76
2023/03/05 10:59:44;;;;;;;14.37;4.80;;;7.50;99.90;;;;;;5109869;28;20218;-75
2023/03/05 11:02:11;;;;;;;12.43;4.20;;;7.80;99.90;;;;;;5102178;28;20226;-76
2023/03/05 11:04:39;;;;;;;10.27;4.40;;;7.90;99.90;;;;;;5109711;28;20588;-76
2023/03/05 11:07:28;;;;;;;10.13;4.67;;;8.10;99.90;;;;;;5105748;28;20840;-75
2023/03/05 11:10:04;;;;;;;10.77;4.57;;;8.50;99.90;;;;;;5105625;28;20412;-76
2023/03/05 11:12:32;;;;;;;7.10;2.80;;;8.80;99.90;;;;;;5104784;28;20218;-76
2023/03/05 11:15:26;;;;;;;8.73;3.03;;;9.00;99.90;;;;;;5098473;28;20746;-76
2023/03/05 11:18:20;;;;;;;10.53;4.50;;;9.20;99.90;;;;;;5102265;28;20199;-75
2023/03/05 11:20:48;;;;;;;11.77;4.43;;;9.40;99.90;;;;;;5101793;28;20207;-75
2023/03/05 11:23:17;;;;;;;11.43;3.93;;;9.60;99.90;;;;;;5106998;28;20203;-76
2023/03/05 11:25:56;;;;;;;12.90;3.57;;;9.40;99.90;;;;;;5108837;28;20241;-76
2023/03/05 11:28:26;;;;;;;10.97;3.97;;;9.50;99.90;;;;;;5104398;28;20241;-76
2023/03/05 11:30:59;;;;;;;16.37;5.13;;;9.50;99.90;;;;;;5108681;28;20203;-76
2023/03/05 11:33:26;;;;;;;12.70;4.50;;;9.60;99.90;;;;;;5105983;28;20211;-76
2023/03/05 11:36:22;;;;;;;14.57;5.03;;;9.70;99.90;;;;;;5097311;28;20242;-76
2023/03/05 11:38:55;;;;;;;18.10;4.63;;;9.90;99.90;;;;;;5102108;27;20195;-76
2023/03/05 11:41:34;;;;;;;12.57;4.13;;;10.20;99.90;;;;;;5106318;28;20214;-76
2023/03/05 11:44:05;;;;;;;12.97;4.50;;;10.30;99.90;;;;;;5104590;27;20212;-76
2023/03/05 11:46:40;;;;;;;13.93;4.37;;;10.50;99.90;;;;;;5103298;28;20242;-76
2023/03/05 11:49:11;;;;;;;14.60;4.33;;;10.70;99.90;;;;;;5105987;28;20231;-76
2023/03/05 11:51:45;;;;;;;13.30;4.50;;;11.00;99.90;;;;;;5105167;28;20696;-76
2023/03/05 11:54:16;;;;;;;11.67;4.00;;;11.30;99.90;;;;;;5106890;28;20218;-76
2023/03/05 11:56:45;;;;;;;10.60;3.90;;;11.60;99.90;;;;;;5109939;28;20682;-77
2023/03/05 11:59:17;;;;;;;11.50;3.67;;;11.70;99.90;;;;;;5108588;28;22104;-76
2023/03/05 12:01:50;;;;;;;12.37;4.23;;;11.80;99.90;;;;;;5104387;28;20613;-76
2023/03/05 12:04:18;;;;;;;12.90;4.17;;;11.90;99.90;;;;;;5105930;28;20746;-76
2023/03/05 12:06:49;;;;;;;12.47;4.00;;;11.80;99.90;;;;;;5084994;28;20582;-76
2023/03/05 12:09:22;;;;;;;12.80;3.77;;;11.50;99.90;;;;;;5097541;28;20216;-76
2023/03/05 12:11:53;;;;;;;13.33;3.87;;;11.10;99.90;;;;;;5106516;28;20203;-76
2023/03/05 12:14:25;;;;;;;14.10;4.20;;;10.90;99.90;;;;;;5103633;28;20203;-76
2023/03/05 12:16:58;;;;;;;13.10;3.93;;;10.70;99.90;;;;;;5108843;28;20244;-76
2023/03/05 12:19:49;;;;;;;12.63;3.73;;;10.70;99.90;;;;;;5106120;28;20195;-74
2023/03/05 12:22:20;;;;;;;11.43;3.83;;;10.50;99.90;;;;;;5103591;28;20206;-76
2023/03/05 12:24:48;;;;;;;15.80;4.40;;;9.80;99.90;;;;;;5080263;28;20211;-76
2023/03/05 12:27:31;;;;;;;13.13;4.67;;;9.80;99.90;;;;;;5105543;28;20210;-76
2023/03/05 12:30:00;;;;;;;17.50;5.90;;;9.50;99.90;;;;;;5100580;28;20227;-76
2023/03/05 12:33:01;;;;;;;15.97;5.40;;;9.30;99.90;;;;;;5103791;28;20207;-77
2023/03/05 12:35:30;;;;;;;16.20;5.37;;;9.20;99.90;;;;;;5095321;28;20235;-76
2023/03/05 12:38:02;;;;;;;15.97;5.40;;;9.10;99.90;;;;;;5105993;27;20579;-76
2023/03/05 12:40:30;;;;;;;12.80;4.53;;;9.10;99.90;;;;;;5106999;28;20213;-76
2023/03/05 12:42:59;;;;;;;15.83;5.20;;;9.10;99.90;;;;;;5109326;28;20203;-76
2023/03/05 12:45:38;;;;;;;15.53;5.20;;;9.20;99.90;;;;;;5106862;28;20250;-75
2023/03/05 12:48:42;;;;;;;13.27;4.57;;;9.20;99.90;;;;;;5100603;28;20210;-76
2023/03/05 12:51:36;;;;;;;17.13;5.87;;;9.30;99.90;;;;;;5103215;28;20210;-75
2023/03/05 12:54:29;;;;;;;15.90;5.03;;;9.30;99.90;;;;;;5106782;28;20755;-76
2023/03/05 12:56:58;;;;;;;14.07;4.80;;;9.30;99.90;;;;;;5089270;28;20283;-76
2023/03/05 12:59:35;;;;;;;13.27;4.83;;;9.60;99.90;;;;;;5105839;28;20318;-75